createdAt,value
2019-05-26T00:02:26.158Z,13.00
2019-05-26T00:05:14.675Z,13.00
2019-05-26T00:08:02.942Z,13.00
2019-05-26T00:10:51.279Z,13.00
2019-05-26T00:13:41.044Z,13.00
2019-05-26T00:16:28.716Z,13.00
2019-05-26T00:19:16.372Z,12.90
2019-05-26T00:22:04.749Z,12.90
2019-05-26T00:24:52.792Z,12.90
2019-05-26T00:27:41.216Z,12.90
2019-05-26T00:30:29.534Z,12.90
2019-05-26T00:33:17.293Z,12.90
2019-05-26T00:36:05.960Z,12.90
2019-05-26T00:38:54.273Z,12.90
2019-05-26T00:41:42.808Z,12.80
2019-05-26T00:44:30.947Z,12.70
2019-05-26T00:47:18.971Z,12.60
2019-05-26T00:50:08.879Z,12.50
2019-05-26T00:52:57.074Z,12.50
2019-05-26T00:55:45.609Z,12.50
2019-05-26T00:58:34.170Z,12.50
2019-05-26T01:01:22.890Z,12.50
2019-05-26T01:04:11.162Z,12.40
2019-05-26T01:06:59.431Z,12.40
2019-05-26T01:09:47.835Z,12.30
2019-05-26T01:12:35.778Z,12.30
2019-05-26T01:15:24.416Z,12.30
2019-05-26T01:18:12.342Z,12.30
2019-05-26T01:21:00.464Z,12.30
2019-05-26T01:23:48.995Z,12.30
2019-05-26T01:26:37.693Z,12.30
2019-05-26T01:29:25.644Z,12.20
2019-05-26T01:32:13.837Z,12.10
2019-05-26T01:35:01.647Z,12.00
2019-05-26T01:37:50.296Z,12.10
2019-05-26T01:40:43.688Z,12.10
2019-05-26T01:43:32.375Z,12.10
2019-05-26T01:46:23.364Z,12.10
2019-05-26T01:49:11.333Z,12.10
2019-05-26T01:51:59.574Z,12.10
2019-05-26T01:54:47.758Z,12.20
2019-05-26T01:57:35.797Z,12.20
2019-05-26T02:00:24.176Z,12.20
2019-05-26T02:03:12.429Z,12.20
2019-05-26T02:06:00.906Z,12.30
2019-05-26T02:08:49.217Z,12.30
2019-05-26T02:11:37.035Z,12.40
2019-05-26T02:14:25.506Z,12.40
2019-05-26T02:17:13.667Z,12.40
2019-05-26T02:20:01.822Z,12.40
2019-05-26T02:22:49.859Z,12.40
2019-05-26T02:25:38.586Z,12.40
2019-05-26T02:28:26.371Z,12.30
2019-05-26T02:31:15.180Z,12.30
2019-05-26T02:34:03.176Z,12.30
2019-05-26T02:36:50.813Z,12.30
2019-05-26T02:39:38.652Z,12.30
2019-05-26T02:42:26.546Z,12.20
2019-05-26T02:45:16.130Z,12.10
2019-05-26T02:48:05.216Z,12.00
2019-05-26T02:50:53.065Z,12.00
2019-05-26T02:53:40.835Z,12.00
2019-05-26T02:56:29.290Z,12.00
2019-05-26T02:59:17.429Z,12.00
2019-05-26T03:02:05.714Z,12.00
2019-05-26T03:04:53.828Z,11.90
2019-05-26T03:07:43.381Z,11.90
2019-05-26T03:10:32.509Z,11.90
2019-05-26T03:13:20.433Z,11.90
2019-05-26T03:16:10.729Z,11.90
2019-05-26T03:19:01.508Z,11.90
2019-05-26T03:21:51.200Z,11.90
2019-05-26T03:24:42.658Z,12.10
2019-05-26T03:27:30.876Z,12.10
2019-05-26T03:30:19.816Z,12.20
2019-05-26T03:33:08.011Z,12.20
2019-05-26T03:35:55.673Z,12.20
2019-05-26T03:38:43.836Z,12.30
2019-05-26T03:41:31.695Z,12.30
2019-05-26T03:44:20.709Z,12.40
2019-05-26T03:47:08.787Z,12.40
2019-05-26T03:49:56.888Z,12.40
2019-05-26T03:52:44.599Z,12.50
2019-05-26T03:55:32.669Z,12.50
2019-05-26T03:58:20.781Z,12.50
2019-05-26T04:01:09.067Z,12.50
2019-05-26T04:03:57.170Z,12.50
2019-05-26T04:06:45.042Z,12.60
2019-05-26T04:09:33.242Z,12.60
2019-05-26T04:12:21.489Z,12.70
2019-05-26T04:15:10.032Z,12.80
2019-05-26T04:17:58.371Z,12.80
2019-05-26T04:20:46.336Z,12.80
2019-05-26T04:23:34.474Z,12.90
2019-05-26T04:26:22.296Z,12.90
2019-05-26T04:29:10.640Z,12.90
2019-05-26T04:32:02.152Z,13.00
2019-05-26T04:34:48.371Z,13.10
2019-05-26T04:37:36.989Z,13.10
2019-05-26T04:40:27.504Z,13.10
2019-05-26T04:43:15.353Z,13.20
2019-05-26T04:46:03.748Z,13.20
2019-05-26T04:48:52.500Z,13.30
2019-05-26T04:51:40.334Z,13.40
2019-05-26T04:54:28.262Z,13.40
2019-05-26T04:57:16.818Z,13.50
2019-05-26T05:00:08.231Z,13.50
2019-05-26T05:02:55.845Z,13.50
2019-05-26T05:05:43.918Z,13.60
2019-05-26T05:08:31.940Z,13.70
2019-05-26T05:11:20.303Z,13.80
2019-05-26T05:14:08.574Z,13.90
2019-05-26T05:16:56.673Z,14.10
2019-05-26T05:19:44.846Z,14.20
2019-05-26T05:22:33.312Z,14.30
2019-05-26T05:25:21.966Z,14.40
2019-05-26T05:28:09.725Z,14.40
2019-05-26T05:30:57.890Z,14.50
2019-05-26T05:33:46.148Z,14.60
2019-05-26T05:36:34.469Z,14.70
2019-05-26T05:39:22.381Z,14.70
2019-05-26T05:42:10.441Z,14.70
2019-05-26T05:44:58.633Z,14.70
2019-05-26T05:47:46.864Z,14.70
2019-05-26T05:50:38.942Z,14.70
2019-05-26T05:53:25.160Z,14.80
2019-05-26T05:56:12.830Z,14.90
2019-05-26T05:59:01.276Z,14.90
2019-05-26T06:01:49.817Z,15.00
2019-05-26T06:04:38.424Z,15.00
2019-05-26T06:07:26.877Z,15.10
2019-05-26T06:10:15.555Z,15.20
2019-05-26T06:13:03.550Z,15.30
2019-05-26T06:15:52.109Z,15.40
2019-05-26T06:18:40.339Z,15.50
2019-05-26T06:21:28.820Z,15.60
2019-05-26T06:24:17.401Z,15.50
2019-05-26T06:27:05.843Z,15.60
2019-05-26T06:29:58.930Z,15.70
2019-05-26T06:32:44.294Z,15.80
2019-05-26T06:35:32.985Z,16.00
2019-05-26T06:38:21.366Z,16.10
2019-05-26T06:41:09.182Z,16.10
2019-05-26T06:43:56.786Z,16.20
2019-05-26T06:46:44.546Z,16.40
2019-05-26T06:49:33.268Z,16.50
2019-05-26T06:52:21.574Z,16.60
2019-05-26T06:55:10.048Z,16.70
2019-05-26T06:57:58.595Z,16.80
2019-05-26T07:00:47.328Z,16.90
2019-05-26T07:03:36.231Z,17.00
2019-05-26T07:06:24.553Z,17.10
2019-05-26T07:09:12.368Z,17.20
2019-05-26T07:12:00.767Z,17.30
2019-05-26T07:14:49.554Z,17.40
2019-05-26T07:17:38.153Z,17.50
2019-05-26T07:20:26.003Z,17.60
2019-05-26T07:23:14.401Z,17.80
2019-05-26T07:26:01.859Z,17.80
2019-05-26T07:28:50.534Z,18.00
2019-05-26T07:31:38.283Z,18.10
2019-05-26T07:34:26.155Z,18.20
2019-05-26T07:37:14.856Z,18.30
2019-05-26T07:40:03.884Z,18.30
2019-05-26T07:42:52.093Z,18.40
2019-05-26T07:45:40.523Z,18.40
2019-05-26T07:48:28.803Z,18.50
2019-05-26T07:51:17.384Z,18.60
2019-05-26T07:54:05.573Z,18.60
2019-05-26T07:56:53.740Z,18.70
2019-05-26T07:59:42.402Z,18.90
2019-05-26T08:02:30.403Z,19.00
2019-05-26T08:05:18.883Z,19.00
2019-05-26T08:08:12.669Z,19.00
2019-05-26T08:10:56.654Z,19.10
2019-05-26T08:13:45.265Z,19.20
2019-05-26T08:16:33.036Z,19.30
2019-05-26T08:19:21.055Z,19.40
2019-05-26T08:22:09.361Z,19.50
2019-05-26T08:24:59.088Z,19.50
2019-05-26T08:27:46.747Z,19.50
2019-05-26T08:30:35.014Z,19.60
2019-05-26T08:33:23.286Z,19.80
2019-05-26T08:36:11.385Z,19.90
2019-05-26T08:38:59.707Z,20.10
2019-05-26T08:41:47.188Z,20.20
2019-05-26T08:44:34.844Z,20.30
2019-05-26T08:47:23.354Z,20.40
2019-05-26T08:50:11.990Z,20.50
2019-05-26T08:53:00.286Z,20.50
2019-05-26T08:55:48.922Z,20.50
2019-05-26T08:58:36.714Z,20.60
2019-05-26T09:01:24.694Z,20.50
2019-05-26T09:04:12.592Z,20.50
2019-05-26T09:07:01.330Z,20.50
2019-05-26T09:09:49.666Z,20.50
2019-05-26T09:12:37.244Z,20.40
2019-05-26T09:15:25.170Z,20.20
2019-05-26T09:18:13.238Z,20.20
2019-05-26T09:21:01.705Z,20.40
2019-05-26T09:23:49.921Z,20.20
2019-05-26T09:26:38.498Z,20.20
2019-05-26T09:29:27.059Z,20.20
2019-05-26T09:32:15.678Z,20.20
2019-05-26T09:35:06.912Z,20.10
2019-05-26T09:37:54.530Z,20.00
2019-05-26T09:40:42.841Z,20.10
2019-05-26T09:43:30.669Z,20.30
2019-05-26T09:46:19.362Z,20.10
2019-05-26T09:49:07.909Z,20.00
2019-05-26T09:51:56.669Z,20.20
2019-05-26T09:54:44.519Z,20.00
2019-05-26T09:57:33.559Z,20.10
2019-05-26T10:00:23.706Z,20.00
2019-05-26T10:03:11.382Z,20.20
2019-05-26T10:05:59.583Z,20.20
2019-05-26T10:08:47.359Z,20.10
2019-05-26T10:11:35.753Z,20.40
2019-05-26T10:14:23.465Z,20.40
2019-05-26T10:17:11.445Z,20.30
2019-05-26T10:19:59.491Z,20.20
2019-05-26T10:22:47.524Z,20.50
2019-05-26T10:25:35.760Z,20.50
2019-05-26T10:28:23.877Z,20.60
2019-05-26T10:31:11.887Z,20.60
2019-05-26T10:34:00.758Z,20.80
2019-05-26T10:36:49.029Z,20.90
2019-05-26T10:39:37.461Z,20.90
2019-05-26T10:42:25.385Z,21.20
2019-05-26T10:45:14.781Z,21.30
2019-05-26T10:48:03.575Z,21.30
2019-05-26T10:50:52.077Z,21.40
2019-05-26T10:53:39.656Z,21.60
2019-05-26T10:56:27.932Z,21.40
2019-05-26T10:59:16.313Z,21.70
2019-05-26T11:02:04.104Z,21.70
2019-05-26T11:04:52.469Z,21.70
2019-05-26T11:07:41.025Z,21.90
2019-05-26T11:10:29.367Z,21.90
2019-05-26T11:13:18.127Z,21.70
2019-05-26T11:16:06.350Z,21.60
2019-05-26T11:18:54.724Z,21.70
2019-05-26T11:21:42.933Z,21.90
2019-05-26T11:24:31.327Z,21.90
2019-05-26T11:27:19.858Z,21.80
2019-05-26T11:30:12.860Z,21.70
2019-05-26T11:33:01.377Z,21.50
2019-05-26T11:35:49.362Z,21.50
2019-05-26T11:38:37.556Z,21.40
2019-05-26T11:41:26.323Z,21.40
2019-05-26T11:44:18.009Z,21.50
2019-05-26T11:47:04.326Z,21.60
2019-05-26T11:50:08.609Z,21.50
2019-05-26T11:52:55.952Z,21.40
2019-05-26T11:55:44.322Z,21.50
2019-05-26T11:58:32.338Z,21.80
2019-05-26T12:01:22.832Z,21.90
2019-05-26T12:04:09.801Z,21.70
2019-05-26T12:06:57.789Z,21.80
2019-05-26T12:09:46.204Z,21.60
2019-05-26T12:12:34.475Z,21.50
2019-05-26T12:15:23.892Z,21.40
2019-05-26T12:18:12.147Z,21.20
2019-05-26T12:21:00.436Z,20.80
2019-05-26T12:23:48.644Z,21.00
2019-05-26T12:26:37.185Z,21.00
2019-05-26T12:29:24.883Z,21.20
2019-05-26T12:32:14.303Z,21.30
2019-05-26T12:35:02.032Z,20.90
2019-05-26T12:37:50.609Z,20.70
2019-05-26T12:40:39.073Z,20.70
2019-05-26T12:43:27.542Z,20.50
2019-05-26T12:46:15.797Z,20.60
2019-05-26T12:49:04.293Z,20.90
2019-05-26T12:51:53.861Z,21.10
2019-05-26T12:54:42.514Z,20.90
2019-05-26T12:57:31.196Z,20.60
2019-05-26T13:00:47.587Z,20.30
2019-05-26T13:03:23.475Z,20.30
2019-05-26T13:06:11.643Z,20.70
2019-05-26T13:08:59.859Z,20.60
2019-05-26T13:11:48.444Z,20.40
2019-05-26T13:14:35.996Z,20.30
2019-05-26T13:17:24.372Z,20.30
2019-05-26T13:20:13.755Z,20.20
2019-05-26T13:23:02.426Z,20.50
2019-05-26T13:25:50.768Z,20.50
2019-05-26T13:28:39.757Z,20.60
2019-05-26T13:31:27.821Z,20.50
2019-05-26T13:34:16.160Z,20.70
2019-05-26T13:37:04.279Z,21.00
2019-05-26T13:39:52.727Z,20.70
2019-05-26T13:42:40.310Z,21.10
2019-05-26T13:45:28.487Z,21.20
2019-05-26T13:48:17.015Z,21.00
2019-05-26T13:51:05.327Z,20.90
2019-05-26T13:53:53.101Z,21.00
2019-05-26T13:56:40.945Z,21.10
2019-05-26T13:59:28.728Z,21.30
2019-05-26T14:02:16.966Z,21.10
2019-05-26T14:05:07.291Z,21.20
2019-05-26T14:07:54.828Z,21.10
2019-05-26T14:10:43.241Z,20.70
2019-05-26T14:13:31.900Z,20.90
2019-05-26T14:16:21.496Z,21.00
2019-05-26T14:19:10.711Z,21.30
2019-05-26T14:21:58.598Z,21.30
2019-05-26T14:24:53.796Z,21.40
2019-05-26T14:27:36.351Z,21.30
2019-05-26T14:30:25.054Z,21.10
2019-05-26T14:33:12.820Z,20.90
2019-05-26T14:36:00.931Z,20.90
2019-05-26T14:38:48.642Z,21.00
2019-05-26T14:41:37.638Z,21.10
2019-05-26T14:44:26.104Z,21.30
2019-05-26T14:47:14.278Z,21.30
2019-05-26T14:50:02.924Z,21.50
2019-05-26T14:52:51.744Z,21.10
2019-05-26T14:55:39.963Z,21.10
2019-05-26T14:58:28.507Z,21.20
2019-05-26T15:01:17.071Z,21.40
2019-05-26T15:04:05.248Z,21.50
2019-05-26T15:06:53.785Z,21.50
2019-05-26T15:09:42.350Z,21.60
2019-05-26T15:12:30.351Z,21.70
2019-05-26T15:15:19.165Z,22.00
2019-05-26T15:18:07.696Z,22.30
2019-05-26T15:20:56.272Z,22.80
2019-05-26T15:23:45.020Z,22.80
2019-05-26T15:26:33.185Z,22.90
2019-05-26T15:29:20.861Z,23.30
2019-05-26T15:32:09.177Z,23.50
2019-05-26T15:34:56.980Z,23.50
2019-05-26T15:37:44.672Z,23.30
2019-05-26T15:40:33.056Z,23.20
2019-05-26T15:43:21.733Z,23.20
2019-05-26T15:46:24.208Z,22.50
2019-05-26T15:48:59.391Z,21.90
2019-05-26T15:51:47.239Z,21.50
2019-05-26T15:54:35.639Z,21.40
2019-05-26T15:57:23.886Z,21.40
2019-05-26T16:00:13.185Z,21.60
2019-05-26T16:03:01.063Z,21.90
2019-05-26T16:05:49.407Z,22.10
2019-05-26T16:08:46.388Z,22.10
2019-05-26T16:11:34.167Z,22.40
2019-05-26T16:14:22.000Z,22.30
2019-05-26T16:17:10.208Z,22.60
2019-05-26T16:19:58.358Z,22.60
2019-05-26T16:22:46.455Z,21.80
2019-05-26T16:25:34.506Z,21.40
2019-05-26T16:28:22.868Z,21.00
2019-05-26T16:31:12.297Z,21.40
2019-05-26T16:34:00.355Z,20.90
2019-05-26T16:36:48.384Z,20.50
2019-05-26T16:39:37.574Z,20.50
2019-05-26T16:42:26.521Z,20.50
2019-05-26T16:45:15.583Z,20.50
2019-05-26T16:48:04.215Z,20.40
2019-05-26T16:50:52.782Z,20.30
2019-05-26T16:53:40.684Z,20.10
2019-05-26T16:56:32.060Z,20.10
2019-05-26T16:59:21.913Z,19.90
2019-05-26T17:02:10.648Z,19.80
2019-05-26T17:04:58.390Z,19.90
2019-05-26T17:07:50.230Z,19.80
2019-05-26T17:10:36.276Z,19.60
2019-05-26T17:13:24.407Z,18.90
2019-05-26T17:16:12.026Z,18.60
2019-05-26T17:19:00.431Z,18.60
2019-05-26T17:21:48.539Z,18.60
2019-05-26T17:24:36.316Z,18.50
2019-05-26T17:27:27.625Z,18.40
2019-05-26T17:30:16.664Z,18.10
2019-05-26T17:33:05.390Z,18.10
2019-05-26T17:35:53.088Z,18.20
2019-05-26T17:38:41.304Z,18.10
2019-05-26T17:41:29.476Z,18.10
2019-05-26T17:44:18.196Z,17.90
2019-05-26T17:47:06.744Z,18.10
2019-05-26T17:49:55.567Z,17.80
2019-05-26T17:52:43.788Z,17.60
2019-05-26T17:55:31.885Z,17.60
2019-05-26T17:58:19.950Z,17.60
2019-05-26T18:01:08.033Z,17.50
2019-05-26T18:03:56.158Z,17.40
2019-05-26T18:06:43.914Z,17.30
2019-05-26T18:09:43.692Z,17.30
2019-05-26T18:12:21.354Z,17.10
2019-05-26T18:15:12.754Z,17.00
2019-05-26T18:18:01.395Z,17.00
2019-05-26T18:20:49.462Z,17.00
2019-05-26T18:23:38.057Z,16.90
2019-05-26T18:26:26.039Z,16.90
2019-05-26T18:29:13.952Z,16.70
2019-05-26T18:32:02.586Z,16.70
2019-05-26T18:34:51.357Z,16.50
2019-05-26T18:37:39.656Z,16.30
2019-05-26T18:40:28.055Z,16.10
2019-05-26T18:43:16.656Z,15.90
2019-05-26T18:46:05.238Z,15.70
2019-05-26T18:48:53.718Z,15.60
2019-05-26T18:51:41.574Z,15.60
2019-05-26T18:54:30.505Z,15.50
2019-05-26T18:57:18.101Z,15.50
2019-05-26T19:00:08.101Z,15.40
2019-05-26T19:02:56.624Z,15.40
2019-05-26T19:05:44.942Z,15.40
2019-05-26T19:08:33.628Z,15.40
2019-05-26T19:11:22.117Z,15.40
2019-05-26T19:14:10.621Z,15.40
2019-05-26T19:16:58.879Z,15.40
2019-05-26T19:19:47.005Z,15.30
2019-05-26T19:22:35.372Z,15.20
2019-05-26T19:25:23.618Z,15.20
2019-05-26T19:28:11.480Z,15.20
2019-05-26T19:31:00.130Z,15.10
2019-05-26T19:33:48.546Z,15.10
2019-05-26T19:36:36.931Z,15.10
2019-05-26T19:39:25.253Z,15.10
2019-05-26T19:42:14.056Z,15.10
2019-05-26T19:45:02.431Z,15.20
2019-05-26T19:47:50.316Z,15.10
2019-05-26T19:50:38.003Z,15.10
2019-05-26T19:53:26.576Z,15.00
2019-05-26T19:56:14.648Z,15.00
2019-05-26T19:59:02.625Z,15.00
2019-05-26T20:01:50.296Z,15.00
2019-05-26T20:04:38.667Z,15.00
2019-05-26T20:07:26.552Z,15.00
2019-05-26T20:10:15.509Z,15.00
2019-05-26T20:13:04.269Z,15.00
2019-05-26T20:15:52.003Z,15.00
2019-05-26T20:18:40.377Z,15.00
2019-05-26T20:21:29.211Z,15.00
2019-05-26T20:24:17.269Z,15.00
2019-05-26T20:27:05.976Z,15.00
2019-05-26T20:29:54.228Z,15.10
2019-05-26T20:32:42.469Z,15.00
2019-05-26T20:35:30.872Z,15.00
2019-05-26T20:38:19.417Z,15.00
2019-05-26T20:41:07.915Z,15.00
2019-05-26T20:43:56.683Z,15.00
2019-05-26T20:46:44.555Z,15.00
2019-05-26T20:49:44.977Z,15.00
2019-05-26T20:52:22.388Z,15.00
2019-05-26T20:55:10.760Z,14.90
2019-05-26T20:57:59.081Z,14.90
2019-05-26T21:00:48.309Z,14.90
2019-05-26T21:03:35.977Z,14.80
2019-05-26T21:06:23.763Z,14.80
2019-05-26T21:09:12.126Z,14.80
2019-05-26T21:12:00.125Z,14.80
2019-05-26T21:14:48.992Z,14.80
2019-05-26T21:17:36.742Z,14.80
2019-05-26T21:20:26.523Z,14.70
2019-05-26T21:23:14.471Z,14.70
2019-05-26T21:26:03.161Z,14.70
2019-05-26T21:28:52.707Z,14.70
2019-05-26T21:31:40.593Z,14.70
2019-05-26T21:34:28.301Z,14.70
2019-05-26T21:37:16.768Z,14.70
2019-05-26T21:40:07.055Z,14.70
2019-05-26T21:42:55.246Z,14.70
2019-05-26T21:45:42.928Z,14.70
2019-05-26T21:48:34.630Z,14.70
2019-05-26T21:51:20.706Z,14.80
2019-05-26T21:54:09.843Z,14.70
2019-05-26T21:56:58.499Z,14.70
2019-05-26T21:59:46.156Z,14.60
2019-05-26T22:02:34.114Z,14.70
2019-05-26T22:05:21.885Z,14.70
2019-05-26T22:08:09.587Z,14.70
2019-05-26T22:10:58.217Z,14.70
2019-05-26T22:13:46.147Z,14.70
2019-05-26T22:16:34.105Z,14.70
2019-05-26T22:19:21.956Z,14.70
2019-05-26T22:22:09.967Z,14.70
2019-05-26T22:24:58.301Z,14.70
2019-05-26T22:27:46.362Z,14.70
2019-05-26T22:30:34.468Z,14.70
2019-05-26T22:33:22.624Z,14.70
2019-05-26T22:36:11.173Z,14.70
2019-05-26T22:38:58.994Z,14.80
2019-05-26T22:41:47.268Z,14.90
2019-05-26T22:44:35.547Z,14.80
2019-05-26T22:47:23.295Z,14.80
2019-05-26T22:50:12.034Z,14.80
2019-05-26T22:53:00.827Z,14.80
2019-05-26T22:55:48.715Z,14.80
2019-05-26T22:58:36.992Z,14.80
2019-05-26T23:01:25.431Z,14.80
2019-05-26T23:04:14.134Z,14.80
2019-05-26T23:07:02.512Z,14.80
2019-05-26T23:09:50.714Z,14.80
2019-05-26T23:12:39.004Z,14.80
2019-05-26T23:15:27.084Z,14.80
2019-05-26T23:18:14.817Z,14.80
2019-05-26T23:21:03.365Z,14.80
2019-05-26T23:23:51.099Z,14.80
2019-05-26T23:26:39.178Z,14.70
2019-05-26T23:29:27.374Z,14.70
2019-05-26T23:32:15.430Z,14.70
2019-05-26T23:35:07.619Z,14.60
2019-05-26T23:37:55.399Z,14.70
2019-05-26T23:40:43.308Z,14.70
2019-05-26T23:43:31.632Z,14.70
2019-05-26T23:46:20.101Z,14.70
2019-05-26T23:49:08.534Z,14.70
2019-05-26T23:51:56.299Z,14.60
2019-05-26T23:54:44.987Z,14.60
2019-05-26T23:57:33.515Z,14.70
